Faycan — EBRA — position and weather

sailwx.info

Track history (hours):
 
Tides and Currents Weather Stations Pressure Air Temp Water Temp Dewpoint Dewpoint Depression Visibility Wind Speed Wind Dir Waves Ship Positions

Faycan

Last reported at 2018-Feb-22 20:36 UTC. Time now 2018-Feb-23 00:07 UTC.
Position N 28°42' W 015°04'.

Length 110 m; draft 6.8 m.

Type: Tanker. MMSI: 224458000.

Date/timePositionNaut miles runAvg speedWind from/ knotsBaromVisibWave heightAir tempDewpointWater temp
2018-Feb-22 20:36N 28°42' W 015°04'1 8.5
2018-Feb-22 20:26N 28°41' W 015°06'4 8.6
2018-Feb-22 19:59N 28°41' W 015°10'4 8.6
2018-Feb-22 19:30N 28°41' W 015°15'4 8.3
2018-Feb-22 19:00N 28°41' W 015°19'4 8.5
2018-Feb-22 18:31N 28°40' W 015°24'4 8.6
2018-Feb-22 18:01N 28°40' W 015°29'5 8.6
2018-Feb-22 17:29N 28°40' W 015°34'4 8.8
2018-Feb-22 16:58N 28°39' W 015°39'4 8.8
2018-Feb-22 16:29N 28°39' W 015°44'10 8.7
2018-Feb-22 15:20N 28°35' W 015°55'4 8.9
2018-Feb-22 14:55N 28°34' W 015°58'4 8.9
2018-Feb-22 14:30N 28°32' W 016°02'4 8.9
2018-Feb-22 14:01N 28°30' W 016°07'5 9.0
2018-Feb-22 13:31N 28°28' W 016°11'4 8.2
2018-Feb-22 13:01N 28°27' W 016°16'0 0.3
2018-Feb-22 12:31N 28°27' W 016°16'0 0.0
2018-Feb-21 19:43N 28°27' W 016°16'0 0.2
2018-Feb-21 19:30N 28°27' W 016°16'2 3.2
2018-Feb-21 18:59N 28°26' W 016°14'3 6.8
2018-Feb-21 18:30N 28°24' W 016°11'0 0.4
2018-Feb-21 18:00N 28°24' W 016°11'1 1.0
2018-Feb-21 17:30N 28°25' W 016°11'0 1.0
2018-Feb-21 17:00N 28°25' W 016°11'0 0.9
2018-Feb-21 16:30N 28°26' W 016°10'0 1.0
2018-Feb-21 16:00N 28°26' W 016°10'1 2.5
2018-Feb-21 15:30N 28°26' W 016°09'5 8.9
2018-Feb-21 14:59N 28°25' W 016°04'5 8.6
2018-Feb-21 14:22N 28°24' W 015°58'3 8.6
2018-Feb-21 13:59N 28°23' W 015°54'4 8.4
2018-Feb-21 13:30N 28°22' W 015°50'4 8.5
2018-Feb-21 13:00N 28°21' W 015°45'4 8.2
2018-Feb-21 12:29N 28°19' W 015°41'4 8.4
2018-Feb-21 12:00N 28°18' W 015°36'4 8.3
2018-Feb-21 11:30N 28°16' W 015°32'4 8.2
2018-Feb-21 11:00N 28°14' W 015°28'4 7.9
2018-Feb-21 10:28N 28°13' W 015°23'3 6.6
2018-Feb-21 10:00N 28°10' W 015°22'4 7.6
2018-Feb-21 09:30N 28°06' W 015°21'4 8.2
2018-Feb-21 09:00N 28°02' W 015°20'4 8.1
2018-Feb-21 08:30N 27°58' W 015°19'4 7.3
2018-Feb-21 08:00N 27°55' W 015°20'2 4.1
2018-Feb-21 07:30N 27°56' W 015°22'0 0.0
2018-Feb-20 08:43N 27°56' W 015°22'1 3.6
2018-Feb-20 08:30N 27°55' W 015°21'2 3.3
2018-Feb-20 08:00N 27°54' W 015°21'5 9.5
2018-Feb-20 07:30N 27°57' W 015°17'5 9.6
2018-Feb-20 07:00N 27°60' W 015°13'5 9.6
2018-Feb-20 06:30N 28°03' W 015°08'5 9.5
2018-Feb-20 06:00N 28°06' W 015°04'4 8.4
2018-Feb-20 05:31N 28°06' W 014°59'4 8.8
2018-Feb-20 05:00N 28°05' W 014°55'4 8.9
2018-Feb-20 04:30N 28°04' W 014°50'4 8.7
2018-Feb-20 04:01N 28°03' W 014°45'4 8.6
2018-Feb-20 03:31N 28°03' W 014°40'31 9.0
2018-Feb-20 00:03N 28°06' W 014°05'1 9.0
2018-Feb-19 23:56N 28°07' W 014°04'38 9.0
2018-Feb-19 19:42N 28°40' W 013°41'310.0
2018-Feb-19 19:27N 28°42' W 013°41'6 9.9
2018-Feb-19 18:53N 28°47' W 013°39'4 9.9
2018-Feb-19 18:31N 28°51' W 013°37'5 9.5
2018-Feb-19 18:00N 28°55' W 013°35'1 0.5
2018-Feb-19 16:06N 28°56' W 013°36'0 0.0
2018-Feb-19 15:06N 28°56' W 013°36'0 0.1
2018-Feb-19 15:00N 28°56' W 013°36'0 0.0
2018-Feb-19 14:18N 28°56' W 013°36'0 0.0
2018-Feb-19 13:24N 28°56' W 013°36'0 0.0
2018-Feb-19 12:54N 28°56' W 013°36'0 0.0
2018-Feb-19 12:30N 28°56' W 013°36'0 0.0
2018-Feb-19 12:00N 28°56' W 013°36'0 0.0
2018-Feb-19 11:30N 28°56' W 013°36'0 0.0
2018-Feb-19 10:12N 28°56' W 013°36'0 0.0
2018-Feb-19 10:00N 28°56' W 013°36'0 0.0
2018-Feb-19 09:18N 28°56' W 013°36'0 0.0
2018-Feb-19 09:00N 28°56' W 013°36'0 0.0
2018-Feb-19 08:24N 28°56' W 013°36'0 0.0
2018-Feb-19 08:00N 28°56' W 013°36'0 0.0
2018-Feb-19 07:24N 28°56' W 013°36'0 0.0
2018-Feb-19 07:00N 28°56' W 013°36'0 0.0
2018-Feb-19 06:30N 28°56' W 013°36'0 0.0
2018-Feb-19 06:00N 28°56' W 013°36'0 0.0
2018-Feb-19 05:30N 28°56' W 013°36'0 0.0
2018-Feb-19 04:54N 28°56' W 013°36'0 0.0
2018-Feb-19 04:30N 28°56' W 013°36'0 0.0
2018-Feb-19 04:00N 28°56' W 013°36'0 0.0
2018-Feb-19 03:30N 28°56' W 013°36'0 0.0
2018-Feb-19 03:00N 28°56' W 013°36'0 0.0
2018-Feb-19 02:24N 28°56' W 013°36'0 0.0
2018-Feb-19 02:00N 28°56' W 013°36'0 0.0
2018-Feb-19 01:24N 28°56' W 013°36'0 0.0
2018-Feb-19 01:00N 28°56' W 013°36'0 0.0
2018-Feb-19 00:30N 28°56' W 013°36'0 0.0
2018-Feb-19 00:00N 28°56' W 013°36'0 0.0
2018-Feb-18 23:30N 28°56' W 013°36'0 0.0
2018-Feb-18 23:00N 28°56' W 013°36'0 0.0
2018-Feb-18 22:30N 28°56' W 013°36'0 0.0
2018-Feb-18 21:48N 28°56' W 013°36'0 0.0
2018-Feb-18 21:30N 28°56' W 013°36'0 0.0
2018-Feb-18 20:54N 28°56' W 013°36'0 0.0
2018-Feb-18 20:30N 28°56' W 013°36'0 0.0
2018-Feb-18 18:41N 28°56' W 013°36'0 0.2
2018-Feb-18 18:30N 28°56' W 013°36'1 2.2
2018-Feb-18 17:56N 28°55' W 013°35'3 7.5
2018-Feb-18 17:29N 28°53' W 013°38'78 8.5
2018-Feb-18 08:17N 28°42' W 015°06'2 8.9
2018-Feb-18 08:00N 28°41' W 015°09'4 8.9
2018-Feb-18 07:30N 28°41' W 015°14'4 8.6
2018-Feb-18 06:59N 28°41' W 015°19'4 8.3
2018-Feb-18 06:30N 28°40' W 015°23'4 8.0
2018-Feb-18 06:00N 28°40' W 015°28'4 8.2
2018-Feb-18 05:30N 28°39' W 015°33'4 8.3
2018-Feb-18 04:59N 28°39' W 015°38'4 8.3
2018-Feb-18 04:27N 28°38' W 015°42'14 8.4
2018-Feb-18 02:48N 28°34' W 015°57'3 8.4
2018-Feb-18 02:30N 28°33' W 016°00'4 8.5
2018-Feb-18 02:00N 28°31' W 016°04'4 8.5
2018-Feb-18 01:30N 28°29' W 016°09'4 8.6
2018-Feb-18 01:00N 28°27' W 016°13'2 4.9
2018-Feb-18 00:30N 28°27' W 016°16'0 0.0
2018-Feb-18 00:00N 28°27' W 016°16'0 0.0
2018-Feb-17 09:06N 28°27' W 016°16'0 0.0
2018-Feb-17 09:00N 28°27' W 016°16'1 2.3
2018-Feb-17 08:30N 28°27' W 016°15'4 8.8
2018-Feb-17 08:00N 28°29' W 016°10'510.1
2018-Feb-17 07:30N 28°31' W 016°05'9 9.9
2018-Feb-17 06:37N 28°35' W 015°56'110.0
2018-Feb-17 06:29N 28°35' W 015°54'510.0
2018-Feb-17 06:00N 28°38' W 015°50'510.0
2018-Feb-17 05:30N 28°40' W 015°44'510.1
2018-Feb-17 05:00N 28°41' W 015°39'510.1
2018-Feb-17 04:30N 28°43' W 015°34'510.1
2018-Feb-17 04:00N 28°45' W 015°28'510.1
2018-Feb-17 03:30N 28°46' W 015°23'5 9.7
2018-Feb-17 03:00N 28°47' W 015°17'5 9.6
2018-Feb-17 02:30N 28°47' W 015°12'5 9.6
2018-Feb-17 02:00N 28°47' W 015°06'5 9.6
2018-Feb-17 01:30N 28°47' W 015°01'5 9.5
2018-Feb-17 01:00N 28°47' W 014°55'5 9.5
2018-Feb-17 00:30N 28°47' W 014°50'5 9.5
2018-Feb-17 00:00N 28°47' W 014°45'5 9.7
2018-Feb-16 23:30N 28°47' W 014°39'5 9.7
2018-Feb-16 23:00N 28°47' W 014°33'5 9.8
2018-Feb-16 22:30N 28°47' W 014°28'5 9.9
2018-Feb-16 22:00N 28°46' W 014°22'510.0
2018-Feb-16 21:30N 28°46' W 014°17'5 9.9
2018-Feb-16 21:00N 28°46' W 014°11'28 9.6
2018-Feb-16 18:06N 28°52' W 013°40'1 9.9
2018-Feb-16 18:00N 28°52' W 013°39'4 8.7
2018-Feb-16 17:30N 28°56' W 013°36'0 0.0
2018-Feb-16 08:08N 28°56' W 013°36'1 5.8
2018-Feb-16 07:59N 28°56' W 013°35'3 6.5
2018-Feb-16 07:29N 28°53' W 013°38'1 2.2
2018-Feb-16 06:59N 28°52' W 013°38'0 0.7
2018-Feb-16 06:30N 28°52' W 013°38'0 0.7
2018-Feb-16 06:00N 28°52' W 013°38'0 0.7
2018-Feb-16 05:27N 28°53' W 013°37'0 0.6
2018-Feb-16 04:59N 28°53' W 013°37'0 0.5
2018-Feb-16 04:30N 28°53' W 013°37'0 0.4
2018-Feb-16 04:00N 28°53' W 013°36'0 0.5
2018-Feb-16 03:30N 28°53' W 013°36'0 0.4
2018-Feb-16 02:58N 28°53' W 013°36'0 0.3
2018-Feb-16 02:30N 28°53' W 013°36'0 0.4
2018-Feb-16 01:59N 28°53' W 013°36'0 0.4
2018-Feb-16 01:27N 28°53' W 013°35'0 0.5
2018-Feb-16 00:58N 28°53' W 013°35'0 0.5
2018-Feb-16 00:30N 28°53' W 013°35'0 0.5
2018-Feb-15 23:58N 28°53' W 013°35'0 0.5
2018-Feb-15 23:30N 28°53' W 013°34'0 0.6
2018-Feb-15 23:00N 28°53' W 013°34'0 0.6
2018-Feb-15 22:29N 28°53' W 013°34'2 4.0
2018-Feb-15 21:59N 28°52' W 013°36'4 7.9
2018-Feb-15 21:30N 28°51' W 013°40'4 8.0
2018-Feb-15 20:58N 28°49' W 013°44'5 7.9
2018-Feb-15 20:21N 28°48' W 013°50'3 8.2
2018-Feb-15 19:59N 28°48' W 013°53'4 7.8
2018-Feb-15 19:30N 28°47' W 013°57'13 8.2
2018-Feb-15 17:55N 28°44' W 014°11'3 8.1
2018-Feb-15 17:30N 28°42' W 014°15'4 7.8
2018-Feb-15 16:59N 28°40' W 014°19'4 7.6
2018-Feb-15 16:26N 28°39' W 014°23'3 7.7
2018-Feb-15 16:00N 28°37' W 014°27'4 7.7
2018-Feb-15 15:30N 28°35' W 014°30'4 7.8
2018-Feb-15 15:00N 28°33' W 014°34'4 7.9
2018-Feb-15 14:30N 28°31' W 014°38'4 7.9
2018-Feb-15 14:00N 28°28' W 014°41'4 7.9
2018-Feb-15 13:30N 28°26' W 014°45'4 8.0
2018-Feb-15 13:00N 28°25' W 014°49'4 8.1
2018-Feb-15 12:30N 28°23' W 014°53'4 8.2
2018-Feb-15 12:00N 28°21' W 014°57'4 8.1
2018-Feb-15 11:28N 28°17' W 015°00'4 8.2
2018-Feb-15 11:00N 28°14' W 015°03'4 8.2
2018-Feb-15 10:30N 28°11' W 015°05'4 8.5
2018-Feb-15 10:00N 28°07' W 015°08'4 8.7
2018-Feb-15 09:30N 28°04' W 015°11'5 8.8
2018-Feb-15 08:59N 27°60' W 015°14'4 8.6
2018-Feb-15 08:30N 27°57' W 015°17'4 8.6
2018-Feb-15 08:00N 27°55' W 015°22'1 1.4
2018-Feb-15 07:28N 27°56' W 015°22'0 0.0
2018-Feb-14 07:40N 27°56' W 015°22'0 0.6
2018-Feb-14 07:22N 27°56' W 015°22'1 3.6
2018-Feb-14 07:00N 27°55' W 015°21'4 7.1
2018-Feb-14 06:30N 27°57' W 015°18'3 6.6
2018-Feb-14 06:00N 27°54' W 015°18'4 7.1
2018-Feb-14 05:30N 27°51' W 015°18'0 0.8
2018-Feb-14 05:00N 27°50' W 015°18'5 9.4
2018-Feb-14 04:27N 27°55' W 015°18'4 8.9
2018-Feb-14 04:00N 27°59' W 015°18'4 8.6
2018-Feb-14 03:30N 28°04' W 015°18'4 8.6
2018-Feb-14 03:00N 28°08' W 015°20'4 8.3
2018-Feb-14 02:30N 28°12' W 015°21'4 7.5
2018-Feb-14 02:00N 28°14' W 015°25'4 8.2
2018-Feb-14 01:30N 28°14' W 015°30'4 8.2
2018-Feb-14 01:00N 28°15' W 015°34'4 8.2
2018-Feb-14 00:30N 28°16' W 015°39'4 8.1
2018-Feb-14 00:00N 28°18' W 015°43'4 8.0
2018-Feb-13 23:30N 28°19' W 015°47'5 7.9
2018-Feb-13 22:56N 28°20' W 015°52'4 7.6
2018-Feb-13 22:28N 28°21' W 015°56'4 7.7
2018-Feb-13 21:56N 28°22' W 016°01'3 7.7
2018-Feb-13 21:29N 28°23' W 016°04'4 7.8
2018-Feb-13 21:00N 28°24' W 016°09'4 7.9
2018-Feb-13 20:30N 28°26' W 016°13'3 6.1
2018-Feb-13 20:00N 28°27' W 016°16'0 0.0
2018-Feb-13 04:18N 28°27' W 016°16'0 0.3
2018-Feb-13 04:00N 28°27' W 016°16'3 5.7
2018-Feb-13 03:31N 28°29' W 016°13'0 0.9
2018-Feb-13 03:00N 28°29' W 016°13'0 0.1
2018-Feb-13 02:29N 28°29' W 016°13'0 0.0
2018-Feb-13 01:59N 28°29' W 016°13'0 0.0
2018-Feb-13 01:29N 28°29' W 016°13'0 0.0
2018-Feb-13 00:59N 28°29' W 016°13'0 0.0
2018-Feb-13 00:26N 28°29' W 016°13'0 0.0
2018-Feb-12 23:59N 28°29' W 016°13'0 0.0
2018-Feb-12 23:29N 28°29' W 016°13'0 0.0
2018-Feb-12 22:59N 28°29' W 016°13'0 0.0
2018-Feb-12 22:29N 28°29' W 016°13'0 0.1
2018-Feb-12 21:59N 28°29' W 016°13'0 0.1
2018-Feb-12 21:29N 28°29' W 016°13'0 0.0
2018-Feb-12 20:59N 28°29' W 016°13'  
Track history (hours):
 
Tides and Currents Weather Stations Pressure Air Temp Water Temp Dewpoint Dewpoint Depression Visibility Wind Speed Wind Dir Waves Ship Positions

Faycan

Last reported at 2018-Feb-22 20:36 UTC. Time now 2018-Feb-23 00:07 UTC.
Position N 28°42' W 015°04'.

Length 110 m; draft 6.8 m.

Type: Tanker. MMSI: 224458000.

Date/timePositionNaut miles runAvg speedWind from/ knotsBaromVisibWave heightAir tempDewpointWater temp
2018-Feb-22 20:36N 28°42' W 015°04'1 8.5
2018-Feb-22 20:26N 28°41' W 015°06'4 8.6
2018-Feb-22 19:59N 28°41' W 015°10'4 8.6
2018-Feb-22 19:30N 28°41' W 015°15'4 8.3
2018-Feb-22 19:00N 28°41' W 015°19'4 8.5
2018-Feb-22 18:31N 28°40' W 015°24'4 8.6
2018-Feb-22 18:01N 28°40' W 015°29'5 8.6
2018-Feb-22 17:29N 28°40' W 015°34'4 8.8
2018-Feb-22 16:58N 28°39' W 015°39'4 8.8
2018-Feb-22 16:29N 28°39' W 015°44'10 8.7
2018-Feb-22 15:20N 28°35' W 015°55'4 8.9
2018-Feb-22 14:55N 28°34' W 015°58'4 8.9
2018-Feb-22 14:30N 28°32' W 016°02'4 8.9
2018-Feb-22 14:01N 28°30' W 016°07'5 9.0
2018-Feb-22 13:31N 28°28' W 016°11'4 8.2
2018-Feb-22 13:01N 28°27' W 016°16'0 0.3
2018-Feb-22 12:31N 28°27' W 016°16'0 0.0
2018-Feb-21 19:43N 28°27' W 016°16'0 0.2
2018-Feb-21 19:30N 28°27' W 016°16'2 3.2
2018-Feb-21 18:59N 28°26' W 016°14'3 6.8
2018-Feb-21 18:30N 28°24' W 016°11'0 0.4
2018-Feb-21 18:00N 28°24' W 016°11'1 1.0
2018-Feb-21 17:30N 28°25' W 016°11'0 1.0
2018-Feb-21 17:00N 28°25' W 016°11'0 0.9
2018-Feb-21 16:30N 28°26' W 016°10'0 1.0
2018-Feb-21 16:00N 28°26' W 016°10'1 2.5
2018-Feb-21 15:30N 28°26' W 016°09'5 8.9
2018-Feb-21 14:59N 28°25' W 016°04'5 8.6
2018-Feb-21 14:22N 28°24' W 015°58'3 8.6
2018-Feb-21 13:59N 28°23' W 015°54'4 8.4
2018-Feb-21 13:30N 28°22' W 015°50'4 8.5
2018-Feb-21 13:00N 28°21' W 015°45'4 8.2
2018-Feb-21 12:29N 28°19' W 015°41'4 8.4
2018-Feb-21 12:00N 28°18' W 015°36'4 8.3
2018-Feb-21 11:30N 28°16' W 015°32'4 8.2
2018-Feb-21 11:00N 28°14' W 015°28'4 7.9
2018-Feb-21 10:28N 28°13' W 015°23'3 6.6
2018-Feb-21 10:00N 28°10' W 015°22'4 7.6
2018-Feb-21 09:30N 28°06' W 015°21'4 8.2
2018-Feb-21 09:00N 28°02' W 015°20'4 8.1
2018-Feb-21 08:30N 27°58' W 015°19'4 7.3
2018-Feb-21 08:00N 27°55' W 015°20'2 4.1
2018-Feb-21 07:30N 27°56' W 015°22'0 0.0
2018-Feb-20 08:43N 27°56' W 015°22'1 3.6
2018-Feb-20 08:30N 27°55' W 015°21'2 3.3
2018-Feb-20 08:00N 27°54' W 015°21'5 9.5
2018-Feb-20 07:30N 27°57' W 015°17'5 9.6
2018-Feb-20 07:00N 27°60' W 015°13'5 9.6
2018-Feb-20 06:30N 28°03' W 015°08'5 9.5
2018-Feb-20 06:00N 28°06' W 015°04'4 8.4
2018-Feb-20 05:31N 28°06' W 014°59'4 8.8
2018-Feb-20 05:00N 28°05' W 014°55'4 8.9
2018-Feb-20 04:30N 28°04' W 014°50'4 8.7
2018-Feb-20 04:01N 28°03' W 014°45'4 8.6
2018-Feb-20 03:31N 28°03' W 014°40'31 9.0
2018-Feb-20 00:03N 28°06' W 014°05'1 9.0
2018-Feb-19 23:56N 28°07' W 014°04'38 9.0
2018-Feb-19 19:42N 28°40' W 013°41'310.0
2018-Feb-19 19:27N 28°42' W 013°41'6 9.9
2018-Feb-19 18:53N 28°47' W 013°39'4 9.9
2018-Feb-19 18:31N 28°51' W 013°37'5 9.5
2018-Feb-19 18:00N 28°55' W 013°35'1 0.5
2018-Feb-19 16:06N 28°56' W 013°36'0 0.0
2018-Feb-19 15:06N 28°56' W 013°36'0 0.1
2018-Feb-19 15:00N 28°56' W 013°36'0 0.0
2018-Feb-19 14:18N 28°56' W 013°36'0 0.0
2018-Feb-19 13:24N 28°56' W 013°36'0 0.0
2018-Feb-19 12:54N 28°56' W 013°36'0 0.0
2018-Feb-19 12:30N 28°56' W 013°36'0 0.0
2018-Feb-19 12:00N 28°56' W 013°36'0 0.0
2018-Feb-19 11:30N 28°56' W 013°36'0 0.0
2018-Feb-19 10:12N 28°56' W 013°36'0 0.0
2018-Feb-19 10:00N 28°56' W 013°36'0 0.0
2018-Feb-19 09:18N 28°56' W 013°36'0 0.0
2018-Feb-19 09:00N 28°56' W 013°36'0 0.0
2018-Feb-19 08:24N 28°56' W 013°36'0 0.0
2018-Feb-19 08:00N 28°56' W 013°36'0 0.0
2018-Feb-19 07:24N 28°56' W 013°36'0 0.0
2018-Feb-19 07:00N 28°56' W 013°36'0 0.0
2018-Feb-19 06:30N 28°56' W 013°36'0 0.0
2018-Feb-19 06:00N 28°56' W 013°36'0 0.0
2018-Feb-19 05:30N 28°56' W 013°36'0 0.0
2018-Feb-19 04:54N 28°56' W 013°36'0 0.0
2018-Feb-19 04:30N 28°56' W 013°36'0 0.0
2018-Feb-19 04:00N 28°56' W 013°36'0 0.0
2018-Feb-19 03:30N 28°56' W 013°36'0 0.0
2018-Feb-19 03:00N 28°56' W 013°36'0 0.0
2018-Feb-19 02:24N 28°56' W 013°36'0 0.0
2018-Feb-19 02:00N 28°56' W 013°36'0 0.0
2018-Feb-19 01:24N 28°56' W 013°36'0 0.0
2018-Feb-19 01:00N 28°56' W 013°36'0 0.0
2018-Feb-19 00:30N 28°56' W 013°36'0 0.0
2018-Feb-19 00:00N 28°56' W 013°36'0 0.0
2018-Feb-18 23:30N 28°56' W 013°36'0 0.0
2018-Feb-18 23:00N 28°56' W 013°36'0 0.0
2018-Feb-18 22:30N 28°56' W 013°36'0 0.0
2018-Feb-18 21:48N 28°56' W 013°36'0 0.0
2018-Feb-18 21:30N 28°56' W 013°36'0 0.0
2018-Feb-18 20:54N 28°56' W 013°36'0 0.0
2018-Feb-18 20:30N 28°56' W 013°36'0 0.0
2018-Feb-18 18:41N 28°56' W 013°36'0 0.2
2018-Feb-18 18:30N 28°56' W 013°36'1 2.2
2018-Feb-18 17:56N 28°55' W 013°35'3 7.5
2018-Feb-18 17:29N 28°53' W 013°38'78 8.5
2018-Feb-18 08:17N 28°42' W 015°06'2 8.9
2018-Feb-18 08:00N 28°41' W 015°09'4 8.9
2018-Feb-18 07:30N 28°41' W 015°14'4 8.6
2018-Feb-18 06:59N 28°41' W 015°19'4 8.3
2018-Feb-18 06:30N 28°40' W 015°23'4 8.0
2018-Feb-18 06:00N 28°40' W 015°28'4 8.2
2018-Feb-18 05:30N 28°39' W 015°33'4 8.3
2018-Feb-18 04:59N 28°39' W 015°38'4 8.3
2018-Feb-18 04:27N 28°38' W 015°42'14 8.4
2018-Feb-18 02:48N 28°34' W 015°57'3 8.4
2018-Feb-18 02:30N 28°33' W 016°00'4 8.5
2018-Feb-18 02:00N 28°31' W 016°04'4 8.5
2018-Feb-18 01:30N 28°29' W 016°09'4 8.6
2018-Feb-18 01:00N 28°27' W 016°13'2 4.9
2018-Feb-18 00:30N 28°27' W 016°16'0 0.0
2018-Feb-18 00:00N 28°27' W 016°16'0 0.0
2018-Feb-17 09:06N 28°27' W 016°16'0 0.0
2018-Feb-17 09:00N 28°27' W 016°16'1 2.3
2018-Feb-17 08:30N 28°27' W 016°15'4 8.8
2018-Feb-17 08:00N 28°29' W 016°10'510.1
2018-Feb-17 07:30N 28°31' W 016°05'9 9.9
2018-Feb-17 06:37N 28°35' W 015°56'110.0
2018-Feb-17 06:29N 28°35' W 015°54'510.0
2018-Feb-17 06:00N 28°38' W 015°50'510.0
2018-Feb-17 05:30N 28°40' W 015°44'510.1
2018-Feb-17 05:00N 28°41' W 015°39'510.1
2018-Feb-17 04:30N 28°43' W 015°34'510.1
2018-Feb-17 04:00N 28°45' W 015°28'510.1
2018-Feb-17 03:30N 28°46' W 015°23'5 9.7
2018-Feb-17 03:00N 28°47' W 015°17'5 9.6
2018-Feb-17 02:30N 28°47' W 015°12'5 9.6
2018-Feb-17 02:00N 28°47' W 015°06'5 9.6
2018-Feb-17 01:30N 28°47' W 015°01'5 9.5
2018-Feb-17 01:00N 28°47' W 014°55'5 9.5
2018-Feb-17 00:30N 28°47' W 014°50'5 9.5
2018-Feb-17 00:00N 28°47' W 014°45'5 9.7
2018-Feb-16 23:30N 28°47' W 014°39'5 9.7
2018-Feb-16 23:00N 28°47' W 014°33'5 9.8
2018-Feb-16 22:30N 28°47' W 014°28'5 9.9
2018-Feb-16 22:00N 28°46' W 014°22'510.0
2018-Feb-16 21:30N 28°46' W 014°17'5 9.9
2018-Feb-16 21:00N 28°46' W 014°11'28 9.6
2018-Feb-16 18:06N 28°52' W 013°40'1 9.9
2018-Feb-16 18:00N 28°52' W 013°39'4 8.7
2018-Feb-16 17:30N 28°56' W 013°36'0 0.0
2018-Feb-16 08:08N 28°56' W 013°36'1 5.8
2018-Feb-16 07:59N 28°56' W 013°35'3 6.5
2018-Feb-16 07:29N 28°53' W 013°38'1 2.2
2018-Feb-16 06:59N 28°52' W 013°38'0 0.7
2018-Feb-16 06:30N 28°52' W 013°38'0 0.7
2018-Feb-16 06:00N 28°52' W 013°38'0 0.7
2018-Feb-16 05:27N 28°53' W 013°37'0 0.6
2018-Feb-16 04:59N 28°53' W 013°37'0 0.5
2018-Feb-16 04:30N 28°53' W 013°37'0 0.4
2018-Feb-16 04:00N 28°53' W 013°36'0 0.5
2018-Feb-16 03:30N 28°53' W 013°36'0 0.4
2018-Feb-16 02:58N 28°53' W 013°36'0 0.3
2018-Feb-16 02:30N 28°53' W 013°36'0 0.4
2018-Feb-16 01:59N 28°53' W 013°36'0 0.4
2018-Feb-16 01:27N 28°53' W 013°35'0 0.5
2018-Feb-16 00:58N 28°53' W 013°35'0 0.5
2018-Feb-16 00:30N 28°53' W 013°35'0 0.5
2018-Feb-15 23:58N 28°53' W 013°35'0 0.5
2018-Feb-15 23:30N 28°53' W 013°34'0 0.6
2018-Feb-15 23:00N 28°53' W 013°34'0 0.6
2018-Feb-15 22:29N 28°53' W 013°34'2 4.0
2018-Feb-15 21:59N 28°52' W 013°36'4 7.9
2018-Feb-15 21:30N 28°51' W 013°40'4 8.0
2018-Feb-15 20:58N 28°49' W 013°44'5 7.9
2018-Feb-15 20:21N 28°48' W 013°50'3 8.2
2018-Feb-15 19:59N 28°48' W 013°53'4 7.8
2018-Feb-15 19:30N 28°47' W 013°57'13 8.2
2018-Feb-15 17:55N 28°44' W 014°11'3 8.1
2018-Feb-15 17:30N 28°42' W 014°15'4 7.8
2018-Feb-15 16:59N 28°40' W 014°19'4 7.6
2018-Feb-15 16:26N 28°39' W 014°23'3 7.7
2018-Feb-15 16:00N 28°37' W 014°27'4 7.7
2018-Feb-15 15:30N 28°35' W 014°30'4 7.8
2018-Feb-15 15:00N 28°33' W 014°34'4 7.9
2018-Feb-15 14:30N 28°31' W 014°38'4 7.9
2018-Feb-15 14:00N 28°28' W 014°41'4 7.9
2018-Feb-15 13:30N 28°26' W 014°45'4 8.0
2018-Feb-15 13:00N 28°25' W 014°49'4 8.1
2018-Feb-15 12:30N 28°23' W 014°53'4 8.2
2018-Feb-15 12:00N 28°21' W 014°57'4 8.1
2018-Feb-15 11:28N 28°17' W 015°00'4 8.2
2018-Feb-15 11:00N 28°14' W 015°03'4 8.2
2018-Feb-15 10:30N 28°11' W 015°05'4 8.5
2018-Feb-15 10:00N 28°07' W 015°08'4 8.7
2018-Feb-15 09:30N 28°04' W 015°11'5 8.8
2018-Feb-15 08:59N 27°60' W 015°14'4 8.6
2018-Feb-15 08:30N 27°57' W 015°17'4 8.6
2018-Feb-15 08:00N 27°55' W 015°22'1 1.4
2018-Feb-15 07:28N 27°56' W 015°22'0 0.0
2018-Feb-14 07:40N 27°56' W 015°22'0 0.6
2018-Feb-14 07:22N 27°56' W 015°22'1 3.6
2018-Feb-14 07:00N 27°55' W 015°21'4 7.1
2018-Feb-14 06:30N 27°57' W 015°18'3 6.6
2018-Feb-14 06:00N 27°54' W 015°18'4 7.1
2018-Feb-14 05:30N 27°51' W 015°18'0 0.8
2018-Feb-14 05:00N 27°50' W 015°18'5 9.4
2018-Feb-14 04:27N 27°55' W 015°18'4 8.9
2018-Feb-14 04:00N 27°59' W 015°18'4 8.6
2018-Feb-14 03:30N 28°04' W 015°18'4 8.6
2018-Feb-14 03:00N 28°08' W 015°20'4 8.3
2018-Feb-14 02:30N 28°12' W 015°21'4 7.5
2018-Feb-14 02:00N 28°14' W 015°25'4 8.2
2018-Feb-14 01:30N 28°14' W 015°30'4 8.2
2018-Feb-14 01:00N 28°15' W 015°34'4 8.2
2018-Feb-14 00:30N 28°16' W 015°39'4 8.1
2018-Feb-14 00:00N 28°18' W 015°43'4 8.0
2018-Feb-13 23:30N 28°19' W 015°47'5 7.9
2018-Feb-13 22:56N 28°20' W 015°52'4 7.6
2018-Feb-13 22:28N 28°21' W 015°56'4 7.7
2018-Feb-13 21:56N 28°22' W 016°01'3 7.7
2018-Feb-13 21:29N 28°23' W 016°04'4 7.8
2018-Feb-13 21:00N 28°24' W 016°09'4 7.9
2018-Feb-13 20:30N 28°26' W 016°13'3 6.1
2018-Feb-13 20:00N 28°27' W 016°16'0 0.0
2018-Feb-13 04:18N 28°27' W 016°16'0 0.3
2018-Feb-13 04:00N 28°27' W 016°16'3 5.7
2018-Feb-13 03:31N 28°29' W 016°13'0 0.9
2018-Feb-13 03:00N 28°29' W 016°13'0 0.1
2018-Feb-13 02:29N 28°29' W 016°13'0 0.0
2018-Feb-13 01:59N 28°29' W 016°13'0 0.0
2018-Feb-13 01:29N 28°29' W 016°13'0 0.0
2018-Feb-13 00:59N 28°29' W 016°13'0 0.0
2018-Feb-13 00:26N 28°29' W 016°13'0 0.0
2018-Feb-12 23:59N 28°29' W 016°13'0 0.0
2018-Feb-12 23:29N 28°29' W 016°13'0 0.0
2018-Feb-12 22:59N 28°29' W 016°13'0 0.0
2018-Feb-12 22:29N 28°29' W 016°13'0 0.1
2018-Feb-12 21:59N 28°29' W 016°13'0 0.1
2018-Feb-12 21:29N 28°29' W 016°13'0 0.0
2018-Feb-12 20:59N 28°29' W 016°13'  

Dump ship's entire track history